Terminal Aerodrome Forecast
Issued by NWS Birmingham, AL

Home | Current Version | Previous Version | Text Only | Print | Product List | Glossary On
Versions: 1 2 3 4 5 6 7 8 9 10 11 12 13
000
FTUS44 KBMX 261720
TAFBHM
TAF
KBHM 261720Z 2618/2718 07008KT P6SM SKC
     FM262000 15005KT P6SM SKC
     FM270400 15005KT P6SM BKN250
     FM270700 15006KT P6SM OVC120
     FM271400 14007KT P6SM SHRA OVC100
     FM271500 14007KT P6SM RA OVC060=

USA.gov is the U.S. government's official web portal to all federal, state and local government web resources and services.